F/V Magali — FGIW — position and weather

sailwx.info

Track history (hours):
 
Tides and Currents Weather Stations Pressure Air Temp Water Temp Dewpoint Dewpoint Depression Visibility Wind Speed Wind Dir Waves Ship Positions

F/V Magali

Last reported at 2017-Oct-18 13:49 UTC. Time now 2017-Oct-18 20:38 UTC.
Position N 46°47' W 003°28'.

Length 18 m; draft 3.5 m.

Type: Fishing. MMSI: 228135000.

Date/timePositionNaut miles runAvg speedWind from/ knotsBaromVisibWave heightAir tempDewpointWater temp
2017-Oct-18 13:49N 46°47' W 003°28'2 2.4
2017-Oct-18 13:03N 46°46' W 003°30'0 4.0
2017-Oct-18 12:56N 46°46' W 003°30'2 2.5
2017-Oct-18 12:18N 46°47' W 003°28'1 4.2
2017-Oct-18 12:00N 46°47' W 003°29'2 4.2
2017-Oct-18 11:30N 46°49' W 003°31'3 3.1
2017-Oct-18 10:34N 46°46' W 003°30'0 2.9
2017-Oct-18 10:28N 46°46' W 003°29'2 2.7
2017-Oct-18 09:50N 46°45' W 003°27'2 4.0
2017-Oct-18 09:24N 46°45' W 003°25'2 4.1
2017-Oct-18 09:00N 46°44' W 003°23'5 2.9
2017-Oct-18 07:18N 46°47' W 003°29'7 2.9
2017-Oct-18 04:44N 46°41' W 003°23'3 0.7
2017-Oct-18 01:01N 46°41' W 003°27'0 3.7
2017-Oct-18 01:00N 46°41' W 003°27'2 3.5
2017-Oct-18 00:29N 46°41' W 003°24'5 0.3
2017-Oct-17 07:13N 46°44' W 003°31'1 4.3
2017-Oct-17 06:59N 46°44' W 003°29'2 2.9
2017-Oct-17 06:14N 46°46' W 003°31'14 7.2
2017-Oct-17 04:19N 47°00' W 003°28'3 9.1
2017-Oct-17 03:59N 47°03' W 003°27'5 9.2
2017-Oct-17 03:28N 47°08' W 003°26'4 9.0
2017-Oct-17 03:00N 47°12' W 003°26'4 9.0
2017-Oct-17 02:30N 47°16' W 003°25'4 8.5
2017-Oct-17 02:00N 47°21' W 003°24'4 8.5
2017-Oct-17 01:30N 47°25' W 003°23'4 8.5
2017-Oct-17 01:00N 47°29' W 003°23'4 8.5
2017-Oct-17 00:30N 47°33' W 003°23'4 8.7
2017-Oct-17 00:00N 47°38' W 003°23'4 8.7
2017-Oct-16 23:30N 47°42' W 003°22'2 3.6
2017-Oct-16 23:00N 47°44' W 003°22'0 0.0
2017-Oct-16 22:30N 47°44' W 003°22'0 0.0
2017-Oct-16 22:00N 47°44' W 003°22'0 0.0
2017-Oct-16 21:30N 47°44' W 003°22'0 0.3
2017-Oct-16 21:00N 47°44' W 003°22'0 0.0
2017-Oct-16 20:30N 47°44' W 003°22'0 0.0
2017-Oct-16 20:00N 47°44' W 003°22'0 0.0
2017-Oct-16 19:30N 47°44' W 003°22'0 0.0
2017-Oct-16 19:00N 47°44' W 003°22'0 0.5
2017-Oct-16 18:30N 47°43' W 003°22'4 7.1
2017-Oct-16 18:00N 47°41' W 003°25'4 8.2
2017-Oct-16 17:30N 47°40' W 003°31'4 8.4
2017-Oct-16 17:00N 47°38' W 003°37'4 8.3
2017-Oct-16 16:30N 47°36' W 003°42'4 8.1
2017-Oct-16 16:00N 47°35' W 003°48'4 8.0
2017-Oct-16 15:30N 47°33' W 003°54'5 0.6
2017-Oct-16 08:21N 47°29' W 003°56'2 3.2
2017-Oct-16 07:53N 47°31' W 003°55'2 1.9
2017-Oct-16 06:48N 47°28' W 003°56'6 3.7
2017-Oct-16 05:12N 47°23' W 003°56'2 3.9
2017-Oct-16 04:49N 47°21' W 003°57'1 3.7
2017-Oct-16 04:30N 47°20' W 003°57'2 2.5
2017-Oct-16 03:53N 47°18' W 003°57'2 3.4
2017-Oct-16 03:24N 47°17' W 003°58'2 3.6
2017-Oct-16 02:55N 47°15' W 003°59'2 3.7
2017-Oct-16 02:30N 47°14' W 004°00'4 3.7
2017-Oct-16 01:31N 47°10' W 004°00'0 3.7
2017-Oct-16 01:24N 47°10' W 004°01'2 4.0
2017-Oct-16 00:52N 47°08' W 004°01'2 3.6
2017-Oct-16 00:27N 47°07' W 003°59'3 3.7
2017-Oct-15 23:42N 47°06' W 003°55'1 3.9
2017-Oct-15 23:27N 47°05' W 003°55'2 3.7
2017-Oct-15 22:58N 47°04' W 003°52'2 3.5
2017-Oct-15 22:30N 47°04' W 003°50'2 3.5
2017-Oct-15 22:00N 47°05' W 003°47'1 2.9
2017-Oct-15 21:30N 47°04' W 003°45'2 3.8
2017-Oct-15 21:00N 47°03' W 003°43'2 4.7
2017-Oct-15 20:30N 47°01' W 003°41'2 3.4
2017-Oct-15 20:00N 46°60' W 003°40'2 4.0
2017-Oct-15 19:30N 47°00' W 003°37'2 3.6
2017-Oct-15 19:00N 47°02' W 003°37'2 3.5
2017-Oct-15 18:30N 47°02' W 003°40'2 3.2
2017-Oct-15 18:00N 47°00' W 003°40'2 4.2
2017-Oct-15 17:30N 46°60' W 003°37'1 3.0
2017-Oct-15 17:00N 47°01' W 003°37'2 3.3
2017-Oct-15 16:30N 47°02' W 003°39'2 3.6
2017-Oct-15 16:00N 47°01' W 003°42'1 1.2
2017-Oct-15 15:30N 47°02' W 003°43'2 3.8
2017-Oct-15 15:00N 47°02' W 003°45'2 2.2
2017-Oct-15 14:00N 47°00' W 003°48'2 3.8
2017-Oct-15 13:29N 47°02' W 003°47'2 3.8
2017-Oct-15 13:00N 47°04' W 003°45'2 3.3
2017-Oct-15 12:30N 47°05' W 003°47'2 3.8
2017-Oct-15 12:00N 47°03' W 003°47'2 3.7
2017-Oct-15 11:30N 47°02' W 003°45'2 3.3
2017-Oct-15 10:56N 47°01' W 003°42'2 3.7
2017-Oct-15 10:30N 47°00' W 003°41'2 3.8
2017-Oct-15 10:00N 46°58' W 003°39'1 1.5
2017-Oct-15 09:30N 46°58' W 003°39'2 3.6
2017-Oct-15 09:00N 46°59' W 003°40'2 3.5
2017-Oct-15 08:30N 47°01' W 003°41'0 0.4
2017-Oct-15 07:59N 47°01' W 003°41'2 4.1
2017-Oct-15 07:30N 46°59' W 003°40'2 4.1
2017-Oct-15 06:59N 46°57' W 003°39'2 4.0
2017-Oct-15 06:29N 46°55' W 003°39'1 1.6
2017-Oct-15 06:00N 46°55' W 003°38'1 2.3
2017-Oct-15 05:30N 46°56' W 003°38'2 3.8
2017-Oct-15 05:00N 46°58' W 003°38'2 3.8
2017-Oct-15 04:30N 46°59' W 003°37'2 2.9
2017-Oct-15 03:51N 47°00' W 003°39'5 3.6
2017-Oct-15 02:27N 46°55' W 003°39'1 3.1
2017-Oct-15 02:00N 46°54' W 003°38'2 3.9
2017-Oct-15 01:29N 46°54' W 003°35'2 4.0
2017-Oct-15 01:00N 46°56' W 003°34'2 4.2
2017-Oct-15 00:30N 46°56' W 003°37'1 2.3
2017-Oct-14 23:56N 46°55' W 003°38'1 2.1
2017-Oct-14 23:26N 46°54' W 003°38'2 3.1
2017-Oct-14 22:54N 46°55' W 003°36'2 3.9
2017-Oct-14 22:30N 46°56' W 003°37'2 3.8
2017-Oct-14 22:00N 46°55' W 003°39'2 2.7
2017-Oct-14 21:26N 46°54' W 003°37'1 2.5
2017-Oct-14 20:52N 46°55' W 003°36'1 0.6
2017-Oct-14 18:37N 46°56' W 003°34'0 2.0
2017-Oct-14 18:30N 46°55' W 003°34'2 3.6
2017-Oct-14 17:51N 46°54' W 003°37'5 3.0
2017-Oct-14 16:12N 46°59' W 003°39'1 3.5
2017-Oct-14 15:59N 46°59' W 003°40'3 3.7
2017-Oct-14 15:18N 47°01' W 003°42'1 3.6
2017-Oct-14 14:56N 47°02' W 003°43'2 3.6
2017-Oct-14 14:27N 47°02' W 003°46'1 2.2
2017-Oct-14 14:00N 47°02' W 003°47'2 3.7
2017-Oct-14 13:30N 47°02' W 003°50'2 3.7
2017-Oct-14 12:57N 47°03' W 003°53'2 3.6
2017-Oct-14 12:27N 47°04' W 003°55'2 3.1
2017-Oct-14 11:59N 47°05' W 003°55'2 3.9
2017-Oct-14 11:30N 47°06' W 003°53'1 3.0
2017-Oct-14 11:00N 47°04' W 003°52'3 3.2
2017-Oct-14 10:08N 47°06' W 003°55'1 4.0
2017-Oct-14 09:53N 47°07' W 003°55'1 2.9
2017-Oct-14 09:30N 47°08' W 003°55'2 3.8
2017-Oct-14 09:00N 47°10' W 003°54'2 4.0
2017-Oct-14 08:30N 47°12' W 003°54'2 3.7
2017-Oct-14 07:56N 47°13' W 003°53'2 3.9
2017-Oct-14 07:30N 47°15' W 003°52'2 3.8
2017-Oct-14 07:00N 47°17' W 003°52'2 3.7
2017-Oct-14 06:30N 47°19' W 003°52'2 3.8
2017-Oct-14 06:00N 47°21' W 003°51'2 4.1
2017-Oct-14 05:28N 47°23' W 003°50'2 4.5
2017-Oct-14 04:59N 47°25' W 003°48'2 4.0
2017-Oct-14 04:30N 47°26' W 003°46'2 4.5
2017-Oct-14 04:00N 47°28' W 003°44'2 4.6
2017-Oct-14 03:30N 47°30' W 003°42'2 4.5
2017-Oct-14 03:00N 47°31' W 003°40'2 4.4
2017-Oct-14 02:30N 47°33' W 003°38'2 4.4
2017-Oct-14 02:00N 47°35' W 003°36'2 4.5
2017-Oct-14 01:30N 47°37' W 003°35'2 4.7
2017-Oct-14 01:00N 47°39' W 003°32'3 6.9
2017-Oct-14 00:30N 47°40' W 003°28'4 8.9
2017-Oct-14 00:00N 47°42' W 003°22'1 2.6
2017-Oct-13 23:30N 47°44' W 003°22'0 0.2
2017-Oct-13 23:00N 47°44' W 003°22'0 0.0
2017-Oct-13 22:30N 47°44' W 003°22'0 0.0
2017-Oct-13 22:00N 47°44' W 003°22'0 0.0
2017-Oct-13 21:30N 47°44' W 003°22'3 5.0
2017-Oct-13 21:00N 47°41' W 003°23'5 9.1
2017-Oct-13 20:30N 47°40' W 003°30'5 9.3
2017-Oct-13 20:00N 47°38' W 003°36'5 9.3
2017-Oct-13 19:30N 47°36' W 003°42'5 9.1
2017-Oct-13 19:00N 47°33' W 003°47'3 5.9
2017-Oct-13 18:27N 47°31' W 003°51'2 3.8
2017-Oct-13 18:00N 47°30' W 003°53'2 3.7
2017-Oct-13 17:30N 47°30' W 003°56'2 3.7
2017-Oct-13 16:59N 47°30' W 003°59'2 3.1
2017-Oct-13 16:21N 47°29' W 004°01'3 3.2
2017-Oct-13 15:31N 47°28' W 003°57'0 4.0
2017-Oct-13 15:26N 47°29' W 003°57'2 3.3
2017-Oct-13 14:54N 47°30' W 003°58'2 3.6
2017-Oct-13 14:28N 47°31' W 003°60'3 1.5
2017-Oct-13 12:28N 47°29' W 003°56'2 3.7
2017-Oct-13 11:59N 47°28' W 003°59'2 0.5
2017-Oct-13 08:46N 47°28' W 004°01'2 1.3
2017-Oct-13 07:02N 47°30' W 003°60'1 4.1
2017-Oct-13 06:53N 47°30' W 004°01'2 3.8
2017-Oct-13 06:27N 47°28' W 004°01'4 4.2
2017-Oct-13 05:33N 47°28' W 003°55'0 2.9
2017-Oct-13 05:28N 47°28' W 003°56'2 3.2
2017-Oct-13 04:58N 47°27' W 003°58'2 3.8
2017-Oct-13 04:29N 47°27' W 004°01'2 3.8
2017-Oct-13 04:00N 47°26' W 004°03'2 3.9
2017-Oct-13 03:30N 47°26' W 004°06'2 3.8
2017-Oct-13 03:00N 47°25' W 004°09'3 1.9
2017-Oct-13 01:30N 47°22' W 004°08'2 3.9
2017-Oct-13 01:00N 47°24' W 004°07'2 3.1
2017-Oct-13 00:28N 47°25' W 004°09'1 2.6
2017-Oct-12 23:57N 47°25' W 004°11'2 3.5
2017-Oct-12 23:28N 47°24' W 004°14'4 2.7
2017-Oct-12 21:50N 47°23' W 004°07'1 3.8
2017-Oct-12 21:30N 47°24' W 004°06'2 3.8
2017-Oct-12 21:00N 47°26' W 004°05'2 3.7
2017-Oct-12 20:30N 47°27' W 004°03'2 3.8
2017-Oct-12 20:00N 47°28' W 004°00'2 3.8
2017-Oct-12 19:30N 47°29' W 003°58'1 2.1
2017-Oct-12 18:59N 47°30' W 003°57'2 3.8
2017-Oct-12 18:30N 47°30' W 004°00'2 3.6
2017-Oct-12 18:00N 47°28' W 004°01'3 3.6
2017-Oct-12 17:14N 47°29' W 003°57'1 3.6
2017-Oct-12 16:58N 47°30' W 003°56'2 3.9
2017-Oct-12 16:30N 47°30' W 003°59'2 1.5
2017-Oct-12 15:07N 47°28' W 003°57'1 3.8
2017-Oct-12 14:59N 47°29' W 003°56'2 3.1
2017-Oct-12 14:28N 47°30' W 003°57'1 2.3
2017-Oct-12 14:00N 47°31' W 003°59'4 1.7
2017-Oct-12 11:44N 47°29' W 003°53'2 3.2
2017-Oct-12 11:07N 47°31' W 003°54'1 3.9
2017-Oct-12 10:56N 47°31' W 003°55'2 3.9
2017-Oct-12 10:27N 47°31' W 003°58'4 2.3
2017-Oct-12 08:47N 47°30' W 003°53'1 3.8
2017-Oct-12 08:30N 47°31' W 003°54'2 3.9
2017-Oct-12 07:55N 47°31' W 003°57'3 3.2
2017-Oct-12 06:51N 47°28' W 004°01'5 3.9
2017-Oct-12 05:34N 47°28' W 003°53'0 4.3
2017-Oct-12 05:29N 47°28' W 003°53'3 5.6
2017-Oct-12 05:00N 47°29' W 003°50'2 4.2
2017-Oct-12 04:30N 47°31' W 003°48'2 4.0
2017-Oct-12 04:00N 47°32' W 003°45'2 4.1
2017-Oct-12 03:30N 47°33' W 003°43'2 4.2
2017-Oct-12 03:00N 47°35' W 003°40'2 4.2
2017-Oct-12 02:30N 47°36' W 003°38'2 4.4
2017-Oct-12 02:00N 47°38' W 003°36'3 5.7
2017-Oct-12 01:30N 47°39' W 003°33'3 6.7
2017-Oct-12 01:00N 47°41' W 003°28'4 7.7
2017-Oct-12 00:30N 47°42' W 003°22'2 3.8
2017-Oct-12 00:00N 47°44' W 003°22'0 0.0
2017-Oct-11 23:30N 47°44' W 003°22'1 1.4
2017-Oct-11 23:00N 47°43' W 003°22'4 7.0
2017-Oct-11 22:30N 47°41' W 003°26'4 7.9
2017-Oct-11 22:00N 47°40' W 003°31'4 7.7
2017-Oct-11 21:30N 47°38' W 003°36'4 7.8
2017-Oct-11 21:00N 47°36' W 003°41'4 7.7
2017-Oct-11 20:30N 47°33' W 003°46'4 7.6
2017-Oct-11 19:59N 47°31' W 003°51'2 4.3
2017-Oct-11 19:29N 47°30' W 003°53'3 2.2
2017-Oct-11 18:05N 47°27' W 003°53'2 3.5
2017-Oct-11 17:34N 47°28' W 003°53'1 3.7
2017-Oct-11 17:25N 47°29' W 003°53'1 2.9
2017-Oct-11 16:59N 47°30' W 003°54'14 0.7
2017-Oct-10 21:11N 47°20' W 004°08'2 4.2
2017-Oct-10 20:43N 47°22' W 004°06'2 4.0
2017-Oct-10 20:17N 47°23' W 004°04'2 4.0
2017-Oct-10 19:51N 47°24' W 004°03'8 3.6
2017-Oct-10 17:43N 47°29' W 003°54'1 3.7
2017-Oct-10 17:30N 47°30' W 003°53'1 0.3
2017-Oct-10 15:47N 47°29' W 003°53'2 3.3
2017-Oct-10 15:13N 47°31' W 003°54'1 4.1
2017-Oct-10 14:56N 47°31' W 003°56'3 2.4
2017-Oct-10 13:44N 47°28' W 003°57'2 3.9
2017-Oct-10 13:19N 47°28' W 003°59'2 3.8
2017-Oct-10 12:52N 47°28' W 004°02'2 0.9
2017-Oct-10 10:24N 47°29' W 004°05'2 3.9
2017-Oct-10 09:55N 47°31' W 004°05'9 2.4
2017-Oct-10 06:17N 47°30' W 003°52'2 4.2
2017-Oct-10 05:45N 47°31' W 003°50'3 7.7
2017-Oct-10 05:23N 47°33' W 003°46'3 8.9
2017-Oct-10 05:00N 47°35' W 003°42'4 8.9
2017-Oct-10 04:30N 47°37' W 003°37'4 8.7
2017-Oct-10 04:00N 47°40' W 003°31'4 8.4
2017-Oct-10 03:30N 47°41' W 003°25'4 7.4
2017-Oct-10 03:00N 47°44' W 003°22'0 0.2
2017-Oct-10 02:30N 47°44' W 003°22'0 0.1
2017-Oct-10 02:00N 47°44' W 003°22'0 0.0
2017-Oct-10 01:30N 47°44' W 003°22'0 0.0
2017-Oct-10 01:00N 47°44' W 003°22'0 0.0
2017-Oct-10 00:30N 47°44' W 003°22'0 0.0
2017-Oct-10 00:00N 47°44' W 003°22'0 0.0
2017-Oct-09 23:30N 47°44' W 003°22'0 0.0
2017-Oct-09 23:00N 47°44' W 003°22'0 0.0
2017-Oct-09 22:30N 47°44' W 003°22'0 0.0
2017-Oct-09 22:00N 47°44' W 003°22'0 0.0
2017-Oct-09 21:30N 47°44' W 003°22'0 0.0
2017-Oct-09 21:00N 47°44' W 003°22'0 0.0
2017-Oct-09 20:30N 47°44' W 003°22'0 0.0
2017-Oct-09 20:00N 47°44' W 003°22'0 0.0
2017-Oct-09 19:30N 47°44' W 003°22'0 0.0
2017-Oct-09 19:00N 47°44' W 003°22'0 0.0
2017-Oct-09 18:30N 47°44' W 003°22'0 0.0
2017-Oct-09 18:00N 47°44' W 003°22'0 0.0
2017-Oct-09 17:30N 47°44' W 003°22'0 0.0
2017-Oct-09 17:00N 47°44' W 003°22'0 0.0
2017-Oct-09 16:30N 47°44' W 003°22'0 0.0
2017-Oct-09 16:00N 47°44' W 003°22'0 0.0
2017-Oct-09 15:30N 47°44' W 003°22'0 0.0
2017-Oct-09 15:00N 47°44' W 003°22'0 0.0
2017-Oct-09 14:30N 47°44' W 003°22'0 0.0
2017-Oct-09 14:00N 47°44' W 003°22'0 0.0
2017-Oct-09 13:30N 47°44' W 003°22'0 0.0
2017-Oct-09 13:00N 47°44' W 003°22'0 0.0
2017-Oct-09 12:30N 47°44' W 003°22'0 0.0
2017-Oct-09 12:00N 47°44' W 003°22'0 0.0
2017-Oct-09 11:30N 47°44' W 003°22'0 0.0
2017-Oct-09 11:00N 47°44' W 003°22'0 0.0
2017-Oct-09 10:30N 47°44' W 003°22'0 0.0
2017-Oct-09 10:00N 47°44' W 003°22'0 0.0
2017-Oct-09 09:30N 47°44' W 003°22'0 0.0
2017-Oct-09 09:00N 47°44' W 003°22'0 0.0
2017-Oct-09 08:30N 47°44' W 003°22'0 0.0
2017-Oct-09 08:00N 47°44' W 003°22'0 0.0
2017-Oct-09 07:30N 47°44' W 003°22'0 0.0
2017-Oct-09 07:00N 47°44' W 003°22'0 0.0
2017-Oct-09 06:30N 47°44' W 003°22'0 0.0
2017-Oct-09 06:00N 47°44' W 003°22'0 0.0
2017-Oct-09 05:30N 47°44' W 003°22'0 0.0
2017-Oct-09 05:00N 47°44' W 003°22'0 0.0
2017-Oct-09 04:30N 47°44' W 003°22'0 0.0
2017-Oct-09 04:00N 47°44' W 003°22'0 0.0
2017-Oct-09 03:30N 47°44' W 003°22'0 0.0
2017-Oct-09 03:00N 47°44' W 003°22'0 0.0
2017-Oct-09 02:30N 47°44' W 003°22'0 0.0
2017-Oct-09 02:00N 47°44' W 003°22'0 0.0
2017-Oct-09 01:30N 47°44' W 003°22'0 0.0
2017-Oct-09 01:00N 47°44' W 003°22'0 0.0
2017-Oct-09 00:30N 47°44' W 003°22'0 0.0
2017-Oct-09 00:00N 47°44' W 003°22'0 0.0
2017-Oct-08 23:30N 47°44' W 003°22'0 0.0
2017-Oct-08 23:00N 47°44' W 003°22'0 0.0
2017-Oct-08 22:30N 47°44' W 003°22'0 0.0
2017-Oct-08 22:00N 47°44' W 003°22'0 0.0
2017-Oct-08 21:30N 47°44' W 003°22'0 0.0
2017-Oct-08 21:00N 47°44' W 003°22'0 0.0
2017-Oct-08 20:30N 47°44' W 003°22'0 0.0
2017-Oct-08 20:00N 47°44' W 003°22'0 0.0
2017-Oct-08 19:30N 47°44' W 003°22'0 0.0
2017-Oct-08 19:00N 47°44' W 003°22'0 0.0
2017-Oct-08 18:30N 47°44' W 003°22'0 0.0
2017-Oct-08 18:00N 47°44' W 003°22'0 0.0
2017-Oct-08 17:30N 47°44' W 003°22'0 0.0
2017-Oct-08 17:00N 47°44' W 003°22'0 0.0
2017-Oct-08 16:30N 47°44' W 003°22'0 0.0
2017-Oct-08 16:00N 47°44' W 003°22'0 0.0
2017-Oct-08 15:30N 47°44' W 003°22'0 0.0
2017-Oct-08 15:00N 47°44' W 003°22'0 0.0
2017-Oct-08 14:30N 47°44' W 003°22'0 0.0
2017-Oct-08 14:00N 47°44' W 003°22'  
Track history (hours):
 
Tides and Currents Weather Stations Pressure Air Temp Water Temp Dewpoint Dewpoint Depression Visibility Wind Speed Wind Dir Waves Ship Positions

F/V Magali

Last reported at 2017-Oct-18 13:49 UTC. Time now 2017-Oct-18 20:38 UTC.
Position N 46°47' W 003°28'.

Length 18 m; draft 3.5 m.

Type: Fishing. MMSI: 228135000.

Date/timePositionNaut miles runAvg speedWind from/ knotsBaromVisibWave heightAir tempDewpointWater temp
2017-Oct-18 13:49N 46°47' W 003°28'2 2.4
2017-Oct-18 13:03N 46°46' W 003°30'0 4.0
2017-Oct-18 12:56N 46°46' W 003°30'2 2.5
2017-Oct-18 12:18N 46°47' W 003°28'1 4.2
2017-Oct-18 12:00N 46°47' W 003°29'2 4.2
2017-Oct-18 11:30N 46°49' W 003°31'3 3.1
2017-Oct-18 10:34N 46°46' W 003°30'0 2.9
2017-Oct-18 10:28N 46°46' W 003°29'2 2.7
2017-Oct-18 09:50N 46°45' W 003°27'2 4.0
2017-Oct-18 09:24N 46°45' W 003°25'2 4.1
2017-Oct-18 09:00N 46°44' W 003°23'5 2.9
2017-Oct-18 07:18N 46°47' W 003°29'7 2.9
2017-Oct-18 04:44N 46°41' W 003°23'3 0.7
2017-Oct-18 01:01N 46°41' W 003°27'0 3.7
2017-Oct-18 01:00N 46°41' W 003°27'2 3.5
2017-Oct-18 00:29N 46°41' W 003°24'5 0.3
2017-Oct-17 07:13N 46°44' W 003°31'1 4.3
2017-Oct-17 06:59N 46°44' W 003°29'2 2.9
2017-Oct-17 06:14N 46°46' W 003°31'14 7.2
2017-Oct-17 04:19N 47°00' W 003°28'3 9.1
2017-Oct-17 03:59N 47°03' W 003°27'5 9.2
2017-Oct-17 03:28N 47°08' W 003°26'4 9.0
2017-Oct-17 03:00N 47°12' W 003°26'4 9.0
2017-Oct-17 02:30N 47°16' W 003°25'4 8.5
2017-Oct-17 02:00N 47°21' W 003°24'4 8.5
2017-Oct-17 01:30N 47°25' W 003°23'4 8.5
2017-Oct-17 01:00N 47°29' W 003°23'4 8.5
2017-Oct-17 00:30N 47°33' W 003°23'4 8.7
2017-Oct-17 00:00N 47°38' W 003°23'4 8.7
2017-Oct-16 23:30N 47°42' W 003°22'2 3.6
2017-Oct-16 23:00N 47°44' W 003°22'0 0.0
2017-Oct-16 22:30N 47°44' W 003°22'0 0.0
2017-Oct-16 22:00N 47°44' W 003°22'0 0.0
2017-Oct-16 21:30N 47°44' W 003°22'0 0.3
2017-Oct-16 21:00N 47°44' W 003°22'0 0.0
2017-Oct-16 20:30N 47°44' W 003°22'0 0.0
2017-Oct-16 20:00N 47°44' W 003°22'0 0.0
2017-Oct-16 19:30N 47°44' W 003°22'0 0.0
2017-Oct-16 19:00N 47°44' W 003°22'0 0.5
2017-Oct-16 18:30N 47°43' W 003°22'4 7.1
2017-Oct-16 18:00N 47°41' W 003°25'4 8.2
2017-Oct-16 17:30N 47°40' W 003°31'4 8.4
2017-Oct-16 17:00N 47°38' W 003°37'4 8.3
2017-Oct-16 16:30N 47°36' W 003°42'4 8.1
2017-Oct-16 16:00N 47°35' W 003°48'4 8.0
2017-Oct-16 15:30N 47°33' W 003°54'5 0.6
2017-Oct-16 08:21N 47°29' W 003°56'2 3.2
2017-Oct-16 07:53N 47°31' W 003°55'2 1.9
2017-Oct-16 06:48N 47°28' W 003°56'6 3.7
2017-Oct-16 05:12N 47°23' W 003°56'2 3.9
2017-Oct-16 04:49N 47°21' W 003°57'1 3.7
2017-Oct-16 04:30N 47°20' W 003°57'2 2.5
2017-Oct-16 03:53N 47°18' W 003°57'2 3.4
2017-Oct-16 03:24N 47°17' W 003°58'2 3.6
2017-Oct-16 02:55N 47°15' W 003°59'2 3.7
2017-Oct-16 02:30N 47°14' W 004°00'4 3.7
2017-Oct-16 01:31N 47°10' W 004°00'0 3.7
2017-Oct-16 01:24N 47°10' W 004°01'2 4.0
2017-Oct-16 00:52N 47°08' W 004°01'2 3.6
2017-Oct-16 00:27N 47°07' W 003°59'3 3.7
2017-Oct-15 23:42N 47°06' W 003°55'1 3.9
2017-Oct-15 23:27N 47°05' W 003°55'2 3.7
2017-Oct-15 22:58N 47°04' W 003°52'2 3.5
2017-Oct-15 22:30N 47°04' W 003°50'2 3.5
2017-Oct-15 22:00N 47°05' W 003°47'1 2.9
2017-Oct-15 21:30N 47°04' W 003°45'2 3.8
2017-Oct-15 21:00N 47°03' W 003°43'2 4.7
2017-Oct-15 20:30N 47°01' W 003°41'2 3.4
2017-Oct-15 20:00N 46°60' W 003°40'2 4.0
2017-Oct-15 19:30N 47°00' W 003°37'2 3.6
2017-Oct-15 19:00N 47°02' W 003°37'2 3.5
2017-Oct-15 18:30N 47°02' W 003°40'2 3.2
2017-Oct-15 18:00N 47°00' W 003°40'2 4.2
2017-Oct-15 17:30N 46°60' W 003°37'1 3.0
2017-Oct-15 17:00N 47°01' W 003°37'2 3.3
2017-Oct-15 16:30N 47°02' W 003°39'2 3.6
2017-Oct-15 16:00N 47°01' W 003°42'1 1.2
2017-Oct-15 15:30N 47°02' W 003°43'2 3.8
2017-Oct-15 15:00N 47°02' W 003°45'2 2.2
2017-Oct-15 14:00N 47°00' W 003°48'2 3.8
2017-Oct-15 13:29N 47°02' W 003°47'2 3.8
2017-Oct-15 13:00N 47°04' W 003°45'2 3.3
2017-Oct-15 12:30N 47°05' W 003°47'2 3.8
2017-Oct-15 12:00N 47°03' W 003°47'2 3.7
2017-Oct-15 11:30N 47°02' W 003°45'2 3.3
2017-Oct-15 10:56N 47°01' W 003°42'2 3.7
2017-Oct-15 10:30N 47°00' W 003°41'2 3.8
2017-Oct-15 10:00N 46°58' W 003°39'1 1.5
2017-Oct-15 09:30N 46°58' W 003°39'2 3.6
2017-Oct-15 09:00N 46°59' W 003°40'2 3.5
2017-Oct-15 08:30N 47°01' W 003°41'0 0.4
2017-Oct-15 07:59N 47°01' W 003°41'2 4.1
2017-Oct-15 07:30N 46°59' W 003°40'2 4.1
2017-Oct-15 06:59N 46°57' W 003°39'2 4.0
2017-Oct-15 06:29N 46°55' W 003°39'1 1.6
2017-Oct-15 06:00N 46°55' W 003°38'1 2.3
2017-Oct-15 05:30N 46°56' W 003°38'2 3.8
2017-Oct-15 05:00N 46°58' W 003°38'2 3.8
2017-Oct-15 04:30N 46°59' W 003°37'2 2.9
2017-Oct-15 03:51N 47°00' W 003°39'5 3.6
2017-Oct-15 02:27N 46°55' W 003°39'1 3.1
2017-Oct-15 02:00N 46°54' W 003°38'2 3.9
2017-Oct-15 01:29N 46°54' W 003°35'2 4.0
2017-Oct-15 01:00N 46°56' W 003°34'2 4.2
2017-Oct-15 00:30N 46°56' W 003°37'1 2.3
2017-Oct-14 23:56N 46°55' W 003°38'1 2.1
2017-Oct-14 23:26N 46°54' W 003°38'2 3.1
2017-Oct-14 22:54N 46°55' W 003°36'2 3.9
2017-Oct-14 22:30N 46°56' W 003°37'2 3.8
2017-Oct-14 22:00N 46°55' W 003°39'2 2.7
2017-Oct-14 21:26N 46°54' W 003°37'1 2.5
2017-Oct-14 20:52N 46°55' W 003°36'1 0.6
2017-Oct-14 18:37N 46°56' W 003°34'0 2.0
2017-Oct-14 18:30N 46°55' W 003°34'2 3.6
2017-Oct-14 17:51N 46°54' W 003°37'5 3.0
2017-Oct-14 16:12N 46°59' W 003°39'1 3.5
2017-Oct-14 15:59N 46°59' W 003°40'3 3.7
2017-Oct-14 15:18N 47°01' W 003°42'1 3.6
2017-Oct-14 14:56N 47°02' W 003°43'2 3.6
2017-Oct-14 14:27N 47°02' W 003°46'1 2.2
2017-Oct-14 14:00N 47°02' W 003°47'2 3.7
2017-Oct-14 13:30N 47°02' W 003°50'2 3.7
2017-Oct-14 12:57N 47°03' W 003°53'2 3.6
2017-Oct-14 12:27N 47°04' W 003°55'2 3.1
2017-Oct-14 11:59N 47°05' W 003°55'2 3.9
2017-Oct-14 11:30N 47°06' W 003°53'1 3.0
2017-Oct-14 11:00N 47°04' W 003°52'3 3.2
2017-Oct-14 10:08N 47°06' W 003°55'1 4.0
2017-Oct-14 09:53N 47°07' W 003°55'1 2.9
2017-Oct-14 09:30N 47°08' W 003°55'2 3.8
2017-Oct-14 09:00N 47°10' W 003°54'2 4.0
2017-Oct-14 08:30N 47°12' W 003°54'2 3.7
2017-Oct-14 07:56N 47°13' W 003°53'2 3.9
2017-Oct-14 07:30N 47°15' W 003°52'2 3.8
2017-Oct-14 07:00N 47°17' W 003°52'2 3.7
2017-Oct-14 06:30N 47°19' W 003°52'2 3.8
2017-Oct-14 06:00N 47°21' W 003°51'2 4.1
2017-Oct-14 05:28N 47°23' W 003°50'2 4.5
2017-Oct-14 04:59N 47°25' W 003°48'2 4.0
2017-Oct-14 04:30N 47°26' W 003°46'2 4.5
2017-Oct-14 04:00N 47°28' W 003°44'2 4.6
2017-Oct-14 03:30N 47°30' W 003°42'2 4.5
2017-Oct-14 03:00N 47°31' W 003°40'2 4.4
2017-Oct-14 02:30N 47°33' W 003°38'2 4.4
2017-Oct-14 02:00N 47°35' W 003°36'2 4.5
2017-Oct-14 01:30N 47°37' W 003°35'2 4.7
2017-Oct-14 01:00N 47°39' W 003°32'3 6.9
2017-Oct-14 00:30N 47°40' W 003°28'4 8.9
2017-Oct-14 00:00N 47°42' W 003°22'1 2.6
2017-Oct-13 23:30N 47°44' W 003°22'0 0.2
2017-Oct-13 23:00N 47°44' W 003°22'0 0.0
2017-Oct-13 22:30N 47°44' W 003°22'0 0.0
2017-Oct-13 22:00N 47°44' W 003°22'0 0.0
2017-Oct-13 21:30N 47°44' W 003°22'3 5.0
2017-Oct-13 21:00N 47°41' W 003°23'5 9.1
2017-Oct-13 20:30N 47°40' W 003°30'5 9.3
2017-Oct-13 20:00N 47°38' W 003°36'5 9.3
2017-Oct-13 19:30N 47°36' W 003°42'5 9.1
2017-Oct-13 19:00N 47°33' W 003°47'3 5.9
2017-Oct-13 18:27N 47°31' W 003°51'2 3.8
2017-Oct-13 18:00N 47°30' W 003°53'2 3.7
2017-Oct-13 17:30N 47°30' W 003°56'2 3.7
2017-Oct-13 16:59N 47°30' W 003°59'2 3.1
2017-Oct-13 16:21N 47°29' W 004°01'3 3.2
2017-Oct-13 15:31N 47°28' W 003°57'0 4.0
2017-Oct-13 15:26N 47°29' W 003°57'2 3.3
2017-Oct-13 14:54N 47°30' W 003°58'2 3.6
2017-Oct-13 14:28N 47°31' W 003°60'3 1.5
2017-Oct-13 12:28N 47°29' W 003°56'2 3.7
2017-Oct-13 11:59N 47°28' W 003°59'2 0.5
2017-Oct-13 08:46N 47°28' W 004°01'2 1.3
2017-Oct-13 07:02N 47°30' W 003°60'1 4.1
2017-Oct-13 06:53N 47°30' W 004°01'2 3.8
2017-Oct-13 06:27N 47°28' W 004°01'4 4.2
2017-Oct-13 05:33N 47°28' W 003°55'0 2.9
2017-Oct-13 05:28N 47°28' W 003°56'2 3.2
2017-Oct-13 04:58N 47°27' W 003°58'2 3.8
2017-Oct-13 04:29N 47°27' W 004°01'2 3.8
2017-Oct-13 04:00N 47°26' W 004°03'2 3.9
2017-Oct-13 03:30N 47°26' W 004°06'2 3.8
2017-Oct-13 03:00N 47°25' W 004°09'3 1.9
2017-Oct-13 01:30N 47°22' W 004°08'2 3.9
2017-Oct-13 01:00N 47°24' W 004°07'2 3.1
2017-Oct-13 00:28N 47°25' W 004°09'1 2.6
2017-Oct-12 23:57N 47°25' W 004°11'2 3.5
2017-Oct-12 23:28N 47°24' W 004°14'4 2.7
2017-Oct-12 21:50N 47°23' W 004°07'1 3.8
2017-Oct-12 21:30N 47°24' W 004°06'2 3.8
2017-Oct-12 21:00N 47°26' W 004°05'2 3.7
2017-Oct-12 20:30N 47°27' W 004°03'2 3.8
2017-Oct-12 20:00N 47°28' W 004°00'2 3.8
2017-Oct-12 19:30N 47°29' W 003°58'1 2.1
2017-Oct-12 18:59N 47°30' W 003°57'2 3.8
2017-Oct-12 18:30N 47°30' W 004°00'2 3.6
2017-Oct-12 18:00N 47°28' W 004°01'3 3.6
2017-Oct-12 17:14N 47°29' W 003°57'1 3.6
2017-Oct-12 16:58N 47°30' W 003°56'2 3.9
2017-Oct-12 16:30N 47°30' W 003°59'2 1.5
2017-Oct-12 15:07N 47°28' W 003°57'1 3.8
2017-Oct-12 14:59N 47°29' W 003°56'2 3.1
2017-Oct-12 14:28N 47°30' W 003°57'1 2.3
2017-Oct-12 14:00N 47°31' W 003°59'4 1.7
2017-Oct-12 11:44N 47°29' W 003°53'2 3.2
2017-Oct-12 11:07N 47°31' W 003°54'1 3.9
2017-Oct-12 10:56N 47°31' W 003°55'2 3.9
2017-Oct-12 10:27N 47°31' W 003°58'4 2.3
2017-Oct-12 08:47N 47°30' W 003°53'1 3.8
2017-Oct-12 08:30N 47°31' W 003°54'2 3.9
2017-Oct-12 07:55N 47°31' W 003°57'3 3.2
2017-Oct-12 06:51N 47°28' W 004°01'5 3.9
2017-Oct-12 05:34N 47°28' W 003°53'0 4.3
2017-Oct-12 05:29N 47°28' W 003°53'3 5.6
2017-Oct-12 05:00N 47°29' W 003°50'2 4.2
2017-Oct-12 04:30N 47°31' W 003°48'2 4.0
2017-Oct-12 04:00N 47°32' W 003°45'2 4.1
2017-Oct-12 03:30N 47°33' W 003°43'2 4.2
2017-Oct-12 03:00N 47°35' W 003°40'2 4.2
2017-Oct-12 02:30N 47°36' W 003°38'2 4.4
2017-Oct-12 02:00N 47°38' W 003°36'3 5.7
2017-Oct-12 01:30N 47°39' W 003°33'3 6.7
2017-Oct-12 01:00N 47°41' W 003°28'4 7.7
2017-Oct-12 00:30N 47°42' W 003°22'2 3.8
2017-Oct-12 00:00N 47°44' W 003°22'0 0.0
2017-Oct-11 23:30N 47°44' W 003°22'1 1.4
2017-Oct-11 23:00N 47°43' W 003°22'4 7.0
2017-Oct-11 22:30N 47°41' W 003°26'4 7.9
2017-Oct-11 22:00N 47°40' W 003°31'4 7.7
2017-Oct-11 21:30N 47°38' W 003°36'4 7.8
2017-Oct-11 21:00N 47°36' W 003°41'4 7.7
2017-Oct-11 20:30N 47°33' W 003°46'4 7.6
2017-Oct-11 19:59N 47°31' W 003°51'2 4.3
2017-Oct-11 19:29N 47°30' W 003°53'3 2.2
2017-Oct-11 18:05N 47°27' W 003°53'2 3.5
2017-Oct-11 17:34N 47°28' W 003°53'1 3.7
2017-Oct-11 17:25N 47°29' W 003°53'1 2.9
2017-Oct-11 16:59N 47°30' W 003°54'14 0.7
2017-Oct-10 21:11N 47°20' W 004°08'2 4.2
2017-Oct-10 20:43N 47°22' W 004°06'2 4.0
2017-Oct-10 20:17N 47°23' W 004°04'2 4.0
2017-Oct-10 19:51N 47°24' W 004°03'8 3.6
2017-Oct-10 17:43N 47°29' W 003°54'1 3.7
2017-Oct-10 17:30N 47°30' W 003°53'1 0.3
2017-Oct-10 15:47N 47°29' W 003°53'2 3.3
2017-Oct-10 15:13N 47°31' W 003°54'1 4.1
2017-Oct-10 14:56N 47°31' W 003°56'3 2.4
2017-Oct-10 13:44N 47°28' W 003°57'2 3.9
2017-Oct-10 13:19N 47°28' W 003°59'2 3.8
2017-Oct-10 12:52N 47°28' W 004°02'2 0.9
2017-Oct-10 10:24N 47°29' W 004°05'2 3.9
2017-Oct-10 09:55N 47°31' W 004°05'9 2.4
2017-Oct-10 06:17N 47°30' W 003°52'2 4.2
2017-Oct-10 05:45N 47°31' W 003°50'3 7.7
2017-Oct-10 05:23N 47°33' W 003°46'3 8.9
2017-Oct-10 05:00N 47°35' W 003°42'4 8.9
2017-Oct-10 04:30N 47°37' W 003°37'4 8.7
2017-Oct-10 04:00N 47°40' W 003°31'4 8.4
2017-Oct-10 03:30N 47°41' W 003°25'4 7.4
2017-Oct-10 03:00N 47°44' W 003°22'0 0.2
2017-Oct-10 02:30N 47°44' W 003°22'0 0.1
2017-Oct-10 02:00N 47°44' W 003°22'0 0.0
2017-Oct-10 01:30N 47°44' W 003°22'0 0.0
2017-Oct-10 01:00N 47°44' W 003°22'0 0.0
2017-Oct-10 00:30N 47°44' W 003°22'0 0.0
2017-Oct-10 00:00N 47°44' W 003°22'0 0.0
2017-Oct-09 23:30N 47°44' W 003°22'0 0.0
2017-Oct-09 23:00N 47°44' W 003°22'0 0.0
2017-Oct-09 22:30N 47°44' W 003°22'0 0.0
2017-Oct-09 22:00N 47°44' W 003°22'0 0.0
2017-Oct-09 21:30N 47°44' W 003°22'0 0.0
2017-Oct-09 21:00N 47°44' W 003°22'0 0.0
2017-Oct-09 20:30N 47°44' W 003°22'0 0.0
2017-Oct-09 20:00N 47°44' W 003°22'0 0.0
2017-Oct-09 19:30N 47°44' W 003°22'0 0.0
2017-Oct-09 19:00N 47°44' W 003°22'0 0.0
2017-Oct-09 18:30N 47°44' W 003°22'0 0.0
2017-Oct-09 18:00N 47°44' W 003°22'0 0.0
2017-Oct-09 17:30N 47°44' W 003°22'0 0.0
2017-Oct-09 17:00N 47°44' W 003°22'0 0.0
2017-Oct-09 16:30N 47°44' W 003°22'0 0.0
2017-Oct-09 16:00N 47°44' W 003°22'0 0.0
2017-Oct-09 15:30N 47°44' W 003°22'0 0.0
2017-Oct-09 15:00N 47°44' W 003°22'0 0.0
2017-Oct-09 14:30N 47°44' W 003°22'0 0.0
2017-Oct-09 14:00N 47°44' W 003°22'0 0.0
2017-Oct-09 13:30N 47°44' W 003°22'0 0.0
2017-Oct-09 13:00N 47°44' W 003°22'0 0.0
2017-Oct-09 12:30N 47°44' W 003°22'0 0.0
2017-Oct-09 12:00N 47°44' W 003°22'0 0.0
2017-Oct-09 11:30N 47°44' W 003°22'0 0.0
2017-Oct-09 11:00N 47°44' W 003°22'0 0.0
2017-Oct-09 10:30N 47°44' W 003°22'0 0.0
2017-Oct-09 10:00N 47°44' W 003°22'0 0.0
2017-Oct-09 09:30N 47°44' W 003°22'0 0.0
2017-Oct-09 09:00N 47°44' W 003°22'0 0.0
2017-Oct-09 08:30N 47°44' W 003°22'0 0.0
2017-Oct-09 08:00N 47°44' W 003°22'0 0.0
2017-Oct-09 07:30N 47°44' W 003°22'0 0.0
2017-Oct-09 07:00N 47°44' W 003°22'0 0.0
2017-Oct-09 06:30N 47°44' W 003°22'0 0.0
2017-Oct-09 06:00N 47°44' W 003°22'0 0.0
2017-Oct-09 05:30N 47°44' W 003°22'0 0.0
2017-Oct-09 05:00N 47°44' W 003°22'0 0.0
2017-Oct-09 04:30N 47°44' W 003°22'0 0.0
2017-Oct-09 04:00N 47°44' W 003°22'0 0.0
2017-Oct-09 03:30N 47°44' W 003°22'0 0.0
2017-Oct-09 03:00N 47°44' W 003°22'0 0.0
2017-Oct-09 02:30N 47°44' W 003°22'0 0.0
2017-Oct-09 02:00N 47°44' W 003°22'0 0.0
2017-Oct-09 01:30N 47°44' W 003°22'0 0.0
2017-Oct-09 01:00N 47°44' W 003°22'0 0.0
2017-Oct-09 00:30N 47°44' W 003°22'0 0.0
2017-Oct-09 00:00N 47°44' W 003°22'0 0.0
2017-Oct-08 23:30N 47°44' W 003°22'0 0.0
2017-Oct-08 23:00N 47°44' W 003°22'0 0.0
2017-Oct-08 22:30N 47°44' W 003°22'0 0.0
2017-Oct-08 22:00N 47°44' W 003°22'0 0.0
2017-Oct-08 21:30N 47°44' W 003°22'0 0.0
2017-Oct-08 21:00N 47°44' W 003°22'0 0.0
2017-Oct-08 20:30N 47°44' W 003°22'0 0.0
2017-Oct-08 20:00N 47°44' W 003°22'0 0.0
2017-Oct-08 19:30N 47°44' W 003°22'0 0.0
2017-Oct-08 19:00N 47°44' W 003°22'0 0.0
2017-Oct-08 18:30N 47°44' W 003°22'0 0.0
2017-Oct-08 18:00N 47°44' W 003°22'0 0.0
2017-Oct-08 17:30N 47°44' W 003°22'0 0.0
2017-Oct-08 17:00N 47°44' W 003°22'0 0.0
2017-Oct-08 16:30N 47°44' W 003°22'0 0.0
2017-Oct-08 16:00N 47°44' W 003°22'0 0.0
2017-Oct-08 15:30N 47°44' W 003°22'0 0.0
2017-Oct-08 15:00N 47°44' W 003°22'0 0.0
2017-Oct-08 14:30N 47°44' W 003°22'0 0.0
2017-Oct-08 14:00N 47°44' W 003°22'  

Dump ship's entire track history